Time;durP1;ratioP1;P1;durP2;ratioP2;P2;SDS_P1;SDS_P2;PMS_P1;PMS_P2;Temp;Humidity;BMP_temperature;BMP_pressure;BME280_temperature;BME280_humidity;BME280_pressure;Samples;Min_cycle;Max_cycle;Signal;HPM_P1;HPM_P2
2023/10/07 00:04:45;;;;;;;10.52;3.22;;;;;;;14.42;66.08;101077.25;10378797;28;20053;-57
2023/10/07 00:09:50;;;;;;;8.25;3.00;;;;;;;14.36;66.11;101071.75;10381996;28;20516;-57
2023/10/07 00:14:51;;;;;;;10.45;3.55;;;;;;;14.32;66.19;101076.69;10374672;28;20048;-57
2023/10/07 00:19:53;;;;;;;12.27;5.18;;;;;;;14.24;66.43;101061.38;10375914;28;20041;-57
2023/10/07 00:24:54;;;;;;;10.00;4.07;;;;;;;14.32;66.15;101065.88;10377952;28;20046;-58
2023/10/07 00:29:59;;;;;;;13.32;4.00;;;;;;;14.23;66.71;101053.44;10378124;28;20125;-56
2023/10/07 00:35:00;;;;;;;10.18;3.67;;;;;;;14.20;66.30;101060.06;10374946;28;20419;-56
2023/10/07 00:40:24;;;;;;;10.25;3.83;;;;;;;14.06;66.72;101056.28;10378650;28;20061;-56
2023/10/07 00:45:26;;;;;;;10.13;4.13;;;;;;;14.00;66.82;101054.31;10376828;28;20104;-55
2023/10/07 00:50:27;;;;;;;11.52;4.65;;;;;;;13.96;66.93;101058.41;10376408;28;20423;-56
2023/10/07 00:55:36;;;;;;;11.85;3.92;;;;;;;13.95;67.09;101045.06;10378991;28;20048;-57
2023/10/07 01:05:54;;;;;;;10.30;3.22;;;;;;;13.83;67.42;101048.19;10377033;28;20046;-56
2023/10/07 01:11:19;;;;;;;11.85;3.90;;;;;;;13.86;67.19;101041.56;10379157;28;21641;-57
2023/10/07 01:16:28;;;;;;;9.57;4.05;;;;;;;13.85;67.06;101042.59;10377402;28;20042;-57
2023/10/07 01:21:33;;;;;;;9.15;3.95;;;;;;;13.87;66.94;101033.28;10339478;28;20413;-55
2023/10/07 01:26:41;;;;;;;9.55;3.92;;;;;;;13.78;67.10;101033.53;10333049;28;20046;-55
2023/10/07 01:31:59;;;;;;;10.50;4.35;;;;;;;13.72;67.49;101016.16;10333176;28;20050;-56
2023/10/07 01:37:03;;;;;;;13.90;4.20;;;;;;;13.63;67.59;101026.19;10332053;28;20046;-56
2023/10/07 01:42:06;;;;;;;12.35;4.68;;;;;;;13.58;67.65;101044.78;10336437;28;20673;-56
2023/10/07 01:47:23;;;;;;;13.68;4.22;;;;;;;13.48;67.86;101047.72;10336895;28;20505;-56
2023/10/07 01:52:29;;;;;;;11.30;4.68;;;;;;;13.53;67.79;101046.38;10334837;28;20046;-58
2023/10/07 01:57:30;;;;;;;12.30;4.43;;;;;;;13.58;67.62;101047.50;10338096;28;20042;-58
2023/10/07 02:02:32;;;;;;;11.32;4.07;;;;;;;13.46;68.13;101040.81;10341410;28;20052;-59
2023/10/07 02:07:36;;;;;;;15.57;5.38;;;;;;;13.41;68.35;101044.06;10344278;28;20054;-58
2023/10/07 02:12:39;;;;;;;13.98;5.63;;;;;;;13.42;68.26;101047.59;10344935;28;20130;-57
2023/10/07 02:17:40;;;;;;;12.40;4.38;;;;;;;13.37;68.27;101028.38;10338142;28;20049;-57
2023/10/07 02:22:44;;;;;;;14.95;4.25;;;;;;;13.41;68.26;101045.94;10344371;28;20060;-58
2023/10/07 02:27:48;;;;;;;17.17;5.68;;;;;;;13.36;68.03;101051.84;10340470;28;20048;-58
2023/10/07 02:32:50;;;;;;;13.23;5.13;;;;;;;13.40;67.90;101047.78;10346680;28;20042;-58
2023/10/07 02:37:52;;;;;;;14.32;5.28;;;;;;;13.35;67.85;101055.59;10343154;28;20130;-58
2023/10/07 02:42:54;;;;;;;12.50;4.85;;;;;;;13.27;67.72;101053.72;10342009;28;20833;-58
2023/10/07 02:48:01;;;;;;;11.10;4.65;;;;;;;13.22;67.77;101050.69;10340968;28;20504;-59
2023/10/07 02:53:11;;;;;;;18.37;5.40;;;;;;;13.14;67.92;101058.84;10337579;28;20049;-59
2023/10/07 02:58:18;;;;;;;14.00;4.63;;;;;;;13.07;68.22;101060.56;10347810;28;20128;-59
2023/10/07 03:14:04;;;;;;;14.63;5.72;;;;;;;12.73;68.74;101050.88;10282257;28;20477;-55
2023/10/07 03:19:20;;;;;;;15.18;5.70;;;;;;;12.64;69.15;101050.06;10342447;28;20049;-57
2023/10/07 03:24:29;;;;;;;14.13;5.53;;;;;;;12.72;68.97;101051.06;10342771;28;20759;-56
2023/10/07 03:29:31;;;;;;;14.68;5.88;;;;;;;12.75;69.05;101039.94;10345956;28;20137;-57
2023/10/07 03:34:33;;;;;;;14.38;5.90;;;;;;;12.76;68.93;101052.41;10340017;28;20054;-57
2023/10/07 03:44:54;;;;;;;19.45;6.00;;;;;;;12.61;69.55;101044.19;10339837;28;20049;-58
2023/10/07 03:49:58;;;;;;;14.88;5.30;;;;;;;12.56;70.12;101050.09;10340375;28;20046;-57
2023/10/07 03:55:00;;;;;;;19.35;6.40;;;;;;;12.64;69.81;101043.84;10338817;28;20042;-57
2023/10/07 04:00:02;;;;;;;15.50;5.82;;;;;;;12.70;69.76;101040.47;10339172;28;20045;-57
2023/10/07 04:05:12;;;;;;;15.30;6.00;;;;;;;12.75;69.88;101026.44;10337725;28;20051;-57
2023/10/07 04:15:28;;;;;;;17.10;6.18;;;;;;;12.96;69.71;101015.06;10341407;28;20129;-58
2023/10/07 04:26:04;;;;;;;21.10;5.70;;;;;;;13.07;69.52;101033.56;10339134;28;20046;-57
2023/10/07 04:31:12;;;;;;;15.80;5.70;;;;;;;13.10;69.27;101052.94;10342021;28;20112;-57
2023/10/07 04:36:15;;;;;;;20.08;7.13;;;;;;;13.12;69.48;101033.06;10337902;28;20042;-57
2023/10/07 04:46:30;;;;;;;;;;;;;;;13.18;69.22;101016.97;10334156;28;20479;-56
2023/10/07 04:56:35;;;;;;;13.00;5.13;;;;;;;13.24;69.12;101005.47;10338583;28;20045;-58
2023/10/07 05:01:41;;;;;;;13.82;6.22;;;;;;;13.35;68.82;101025.00;10329690;28;20034;-59
2023/10/07 05:06:43;;;;;;;10.43;5.03;;;;;;;13.36;68.95;101021.31;10346241;28;20120;-57
2023/10/07 05:11:47;;;;;;;15.05;5.22;;;;;;;13.31;69.29;101040.75;10334679;28;20497;-56
2023/10/07 05:16:48;;;;;;;15.45;5.50;;;;;;;13.34;69.19;101037.69;10337830;28;20577;-56
2023/10/07 05:27:13;;;;;;;18.58;5.65;;;;;;;13.42;68.83;101017.91;10333040;28;20741;-56
2023/10/07 05:32:16;;;;;;;15.77;5.28;;;;;;;13.39;69.08;101042.53;10333045;28;20042;-56
2023/10/07 05:37:18;;;;;;;12.13;4.63;;;;;;;13.57;68.63;101040.44;10342456;28;20097;-58
2023/10/07 05:42:20;;;;;;;12.10;5.05;;;;;;;13.76;68.27;101059.88;10339147;28;20042;-58
2023/10/07 05:47:21;;;;;;;11.77;4.95;;;;;;;13.75;68.20;101055.50;10341221;28;20050;-57
2023/10/07 05:52:24;;;;;;;14.23;5.55;;;;;;;13.81;68.28;101057.50;10344844;28;20062;-59
2023/10/07 05:57:25;;;;;;;14.68;5.65;;;;;;;13.73;68.46;101054.84;10335519;28;20176;-58
2023/10/07 06:02:27;;;;;;;14.75;4.70;;;;;;;13.73;68.55;101057.56;10348201;28;20057;-57
2023/10/07 06:07:28;;;;;;;13.68;5.28;;;;;;;13.78;68.44;101057.84;10344421;28;20489;-58
2023/10/07 06:12:30;;;;;;;14.40;4.97;;;;;;;13.82;68.41;101059.16;10341475;28;20043;-58
2023/10/07 06:17:32;;;;;;;14.32;5.53;;;;;;;13.86;68.32;101072.16;10346472;28;20444;-57
2023/10/07 06:22:33;;;;;;;13.55;5.80;;;;;;;13.86;68.40;101074.00;10340345;28;20045;-58
2023/10/07 06:27:37;;;;;;;14.43;5.72;;;;;;;13.84;68.39;101076.03;10344089;28;20046;-58
2023/10/07 06:32:44;;;;;;;14.38;5.22;;;;;;;13.77;68.75;101075.91;10341075;28;20433;-58
2023/10/07 06:37:46;;;;;;;13.57;5.38;;;;;;;13.89;68.46;101069.06;10341775;28;20054;-59
2023/10/07 06:42:47;;;;;;;14.88;5.07;;;;;;;13.96;68.25;101074.63;10337641;28;20049;-61
2023/10/07 06:47:49;;;;;;;12.98;4.68;;;;;;;14.03;68.16;101070.16;10341614;28;20041;-61
2023/10/07 06:52:50;;;;;;;14.80;5.05;;;;;;;14.07;68.19;101073.34;10345764;28;20048;-62
2023/10/07 06:57:56;;;;;;;11.90;4.85;;;;;;;14.04;68.11;101079.97;10344176;28;20572;-61
2023/10/07 07:02:57;;;;;;;12.88;5.20;;;;;;;14.04;68.36;101098.88;10343314;28;20042;-61
2023/10/07 07:08:03;;;;;;;10.82;5.30;;;;;;;13.97;68.51;101092.50;10342391;28;20107;-63
2023/10/07 07:13:12;;;;;;;13.65;5.40;;;;;;;14.05;68.26;101103.25;10337295;28;20038;-60
2023/10/07 07:23:16;;;;;;;12.88;4.80;;;;;;;14.09;68.29;101109.16;10341347;28;20045;-62
2023/10/07 07:28:18;;;;;;;13.35;5.03;;;;;;;14.11;68.22;101111.69;10338750;28;20054;-61
2023/10/07 07:33:28;;;;;;;12.70;5.78;;;;;;;14.09;68.40;101114.56;10341564;28;20164;-63
2023/10/07 07:38:30;;;;;;;12.48;5.53;;;;;;;14.10;68.31;101118.97;10346077;28;20045;-59
2023/10/07 07:43:43;;;;;;;10.40;4.72;;;;;;;14.16;68.18;101126.34;10338098;28;20060;-62
2023/10/07 07:48:45;;;;;;;9.30;4.65;;;;;;;14.21;67.98;101126.63;10344912;28;20060;-62
2023/10/07 07:53:46;;;;;;;15.18;5.28;;;;;;;14.33;67.79;101134.31;10339978;28;20127;-58
2023/10/07 07:58:48;;;;;;;16.00;5.20;;;;;;;14.47;67.62;101126.25;10337480;28;20046;-58
2023/10/07 08:03:50;;;;;;;11.93;4.22;;;;;;;14.55;67.49;101130.72;10336556;28;20552;-58
2023/10/07 08:08:53;;;;;;;12.43;5.00;;;;;;;14.70;67.22;101128.09;10339529;28;20034;-60
2023/10/07 08:13:55;;;;;;;11.40;4.85;;;;;;;14.74;67.31;101155.66;10336220;28;20137;-59
2023/10/07 08:18:56;;;;;;;9.75;4.30;;;;;;;14.87;66.82;101142.34;10337649;28;20069;-58
2023/10/07 08:24:01;;;;;;;11.85;4.25;;;;;;;14.90;67.04;101149.22;10344649;28;20058;-59
2023/10/07 08:29:04;;;;;;;12.25;4.78;;;;;;;15.03;67.16;101144.03;10335882;28;20069;-58
2023/10/07 08:39:09;;;;;;;12.30;5.30;;;;;;;15.18;66.80;101130.47;10339456;28;20504;-58
2023/10/07 08:44:13;;;;;;;11.68;4.32;;;;;;;15.33;66.89;101128.59;10339116;28;20045;-58
2023/10/07 08:49:24;;;;;;;12.65;4.38;;;;;;;15.61;66.14;101115.19;10338535;28;20054;-60
2023/10/07 08:54:31;;;;;;;8.80;4.32;;;;;;;15.70;65.89;101123.22;10340965;28;20051;-59
2023/10/07 08:59:33;;;;;;;12.70;3.97;;;;;;;15.95;65.59;101123.72;10336552;28;20691;-58
2023/10/07 09:04:35;;;;;;;13.55;4.18;;;;;;;16.08;65.13;101125.75;10336094;28;20034;-59
2023/10/07 09:09:43;;;;;;;11.27;5.07;;;;;;;16.23;65.02;101110.22;10345520;28;20405;-63
2023/10/07 09:14:55;;;;;;;9.13;3.95;;;;;;;16.32;65.00;101092.78;10346846;28;20523;-60
2023/10/07 09:20:00;;;;;;;12.75;5.22;;;;;;;16.30;64.81;101104.88;10348902;28;20045;-59
2023/10/07 09:25:16;;;;;;;11.60;4.10;;;;;;;16.43;64.28;101111.28;10346296;28;20120;-59
2023/10/07 09:35:49;;;;;;;12.32;4.75;;;;;;;16.39;64.46;101112.69;10344214;28;20382;-60
2023/10/07 09:45:58;;;;;;;9.40;4.80;;;;;;;16.56;64.23;101117.84;10345168;28;20073;-59
2023/10/07 09:51:02;;;;;;;13.30;4.20;;;;;;;16.68;64.18;101116.25;10342076;28;20069;-59
2023/10/07 09:56:20;;;;;;;6.55;3.28;;;;;;;16.96;63.68;101091.84;10345045;28;20053;-62
2023/10/07 10:01:54;;;;;;;13.52;4.40;;;;;;;17.27;63.15;101092.41;10345081;28;20061;-59
2023/10/07 10:07:28;;;;;;;12.00;4.22;;;;;;;17.57;62.88;101098.38;10343359;28;20121;-60
2023/10/07 10:17:54;;;;;;;11.73;4.63;;;;;;;17.83;62.43;101094.91;10345146;28;20042;-59
2023/10/07 10:23:00;;;;;;;9.23;4.32;;;;;;;17.94;62.19;101098.94;10344395;28;20544;-60
2023/10/07 10:28:10;;;;;;;10.40;4.15;;;;;;;18.11;61.92;101092.06;10340217;28;20954;-58
2023/10/07 10:33:19;;;;;;;13.00;3.72;;;;;;;18.34;61.53;101104.44;10347580;28;20045;-60
2023/10/07 10:38:21;;;;;;;7.95;4.10;;;;;;;18.53;61.49;101108.22;10338882;28;20054;-58
2023/10/07 10:43:24;;;;;;;11.13;4.18;;;;;;;18.68;61.13;101084.31;10342545;28;20112;-61
2023/10/07 10:48:27;;;;;;;9.48;4.22;;;;;;;18.72;61.09;101085.56;10365534;28;20568;-59
2023/10/07 10:53:29;;;;;;;8.70;3.20;;;;;;;18.67;61.58;101070.91;10394972;28;20038;-60
2023/10/07 10:58:30;;;;;;;9.75;3.58;;;;;;;18.90;61.00;101068.59;10384210;28;20667;-59
2023/10/07 11:03:32;;;;;;;7.30;3.03;;;;;;;19.16;60.54;101064.94;10386263;28;20049;-58
2023/10/07 11:08:37;;;;;;;5.85;2.70;;;;;;;19.39;60.50;101069.88;10394237;28;20083;-60
2023/10/07 11:13:43;;;;;;;8.35;2.92;;;;;;;19.56;59.99;101062.03;10388680;28;20045;-59
2023/10/07 11:18:46;;;;;;;6.03;2.15;;;;;;;19.75;59.77;101073.94;10396132;28;20054;-61
2023/10/07 11:23:55;;;;;;;4.90;2.17;;;;;;;19.86;59.13;101057.91;10388893;28;20057;-60
2023/10/07 11:28:56;;;;;;;6.22;1.65;;;;;;;19.95;58.82;101043.78;10392921;28;20420;-60
2023/10/07 11:33:59;;;;;;;9.52;3.03;;;;;;;20.03;59.04;101041.84;10385301;28;20096;-59
2023/10/07 11:39:06;;;;;;;6.30;2.25;;;;;;;20.24;58.24;101041.47;10381826;28;20107;-60
2023/10/07 11:44:09;;;;;;;7.68;2.47;;;;;;;20.64;57.26;101034.81;10386215;28;20057;-60
2023/10/07 11:49:12;;;;;;;5.68;1.92;;;;;;;21.10;56.26;101034.28;10385132;28;20069;-59
2023/10/07 11:54:14;;;;;;;5.25;1.90;;;;;;;21.16;56.08;101041.56;10382946;28;20132;-60
2023/10/07 11:59:19;;;;;;;8.88;2.53;;;;;;;21.51;55.72;101038.19;10381732;28;20069;-59
2023/10/07 12:04:22;;;;;;;5.30;2.03;;;;;;;21.72;55.01;101017.72;10384161;28;20053;-59
2023/10/07 12:09:24;;;;;;;4.40;1.60;;;;;;;21.68;55.04;101023.84;10386128;28;20130;-59
2023/10/07 12:14:27;;;;;;;5.15;1.65;;;;;;;21.73;54.93;101030.31;10386213;28;20049;-59
2023/10/07 12:19:30;;;;;;;5.45;1.60;;;;;;;21.84;54.32;101020.47;10385137;28;20111;-60
2023/10/07 12:24:33;;;;;;;3.33;1.50;;;;;;;21.97;54.12;101008.47;10385337;28;20051;-58
2023/10/07 12:29:34;;;;;;;5.30;1.77;;;;;;;22.50;52.97;101023.19;10384579;28;20060;-60
2023/10/07 12:34:36;;;;;;;4.97;1.10;;;;;;;22.86;52.33;101033.03;10382756;28;20046;-65
2023/10/07 12:39:39;;;;;;;4.50;1.95;;;;;;;22.95;51.51;101014.31;10380618;28;20756;-64
2023/10/07 12:44:40;;;;;;;3.03;1.48;;;;;;;23.10;51.20;101028.34;10376207;28;20052;-65
2023/10/07 12:49:45;;;;;;;4.53;1.77;;;;;;;23.59;49.90;101018.88;10378481;28;20128;-65
2023/10/07 12:54:46;;;;;;;4.38;1.38;;;;;;;23.64;50.21;101024.47;10379866;28;20636;-65
2023/10/07 12:59:52;;;;;;;3.70;1.60;;;;;;;23.74;50.41;101021.91;10378466;28;20061;-62
2023/10/07 13:04:55;;;;;;;5.30;1.40;;;;;;;23.60;50.35;101015.88;10374832;28;20046;-66
2023/10/07 13:09:57;;;;;;;5.20;1.40;;;;;;;23.51;50.20;101017.34;10382710;28;20045;-62
2023/10/07 13:14:59;;;;;;;4.82;1.60;;;;;;;23.58;50.38;101008.97;10383669;28;20567;-63
2023/10/07 13:20:00;;;;;;;4.90;1.55;;;;;;;23.41;50.18;100995.22;10374957;28;20041;-62
2023/10/07 13:25:04;;;;;;;4.30;1.05;;;;;;;23.35;49.99;100986.06;10374885;28;20517;-64
2023/10/07 13:30:11;;;;;;;5.25;1.65;;;;;;;23.31;50.74;100980.22;10376561;28;20398;-64
2023/10/07 13:35:19;;;;;;;4.85;1.23;;;;;;;23.66;49.64;100979.22;10374728;28;20069;-64
2023/10/07 13:40:20;;;;;;;3.17;1.45;;;;;;;23.86;48.93;100976.00;10378738;28;20047;-63
2023/10/07 13:45:24;;;;;;;6.47;1.30;;;;;;;24.06;48.66;100966.44;10374454;28;20064;-60
2023/10/07 13:50:27;;;;;;;5.65;1.60;;;;;;;24.24;48.09;100968.91;10380393;28;20488;-61
2023/10/07 13:55:55;;;;;;;3.42;1.10;;;;;;;24.17;48.26;100957.28;10398484;28;20041;-60
2023/10/07 14:00:57;;;;;;;3.17;1.40;;;;;;;24.31;48.69;100957.75;10383992;28;20046;-60
2023/10/07 14:06:01;;;;;;;6.88;1.60;;;;;;;24.35;47.85;100964.41;10396048;28;20052;-59
2023/10/07 14:11:06;;;;;;;7.28;1.80;;;;;;;24.20;48.21;100970.50;10393458;28;20042;-61
2023/10/07 14:16:11;;;;;;;3.47;1.23;;;;;;;24.32;47.85;100959.41;10390233;28;20519;-60
2023/10/07 14:21:17;;;;;;;4.28;1.20;;;;;;;24.25;47.87;100965.09;10390400;28;20053;-60
2023/10/07 14:26:19;;;;;;;6.38;1.73;;;;;;;24.42;47.53;100966.97;10385819;28;20050;-60
2023/10/07 14:31:22;;;;;;;3.30;1.50;;;;;;;24.36;47.47;100968.81;10392725;28;20073;-60
2023/10/07 14:36:23;;;;;;;3.20;1.50;;;;;;;24.10;48.33;100971.16;10395320;28;20065;-60
2023/10/07 14:41:27;;;;;;;4.07;1.10;;;;;;;23.80;48.33;100971.53;10389210;28;20064;-61
2023/10/07 14:46:28;;;;;;;5.60;1.42;;;;;;;23.89;48.38;100958.19;10387982;28;20489;-60
2023/10/07 14:51:30;;;;;;;3.65;1.38;;;;;;;24.24;47.37;100959.84;10390290;28;20096;-60
2023/10/07 14:56:32;;;;;;;6.78;1.40;;;;;;;24.15;47.29;100968.50;10387647;28;20053;-59
2023/10/07 15:01:34;;;;;;;5.18;1.45;;;;;;;24.71;46.71;100970.41;10384391;28;20038;-60
2023/10/07 15:06:35;;;;;;;5.57;1.33;;;;;;;24.62;46.43;100961.75;10385942;28;20420;-61
2023/10/07 15:11:37;;;;;;;3.85;1.40;;;;;;;24.43;47.06;100963.16;10388588;28;20048;-60
2023/10/07 15:16:39;;;;;;;6.50;1.58;;;;;;;24.26;47.03;100965.91;10387354;28;20037;-60
2023/10/07 15:21:43;;;;;;;3.20;1.10;;;;;;;24.07;47.73;100971.69;10389680;28;20048;-60
2023/10/07 15:26:45;;;;;;;3.53;1.25;;;;;;;23.97;47.03;100971.50;10391675;28;20050;-60
2023/10/07 15:31:47;;;;;;;6.65;1.10;;;;;;;23.74;48.36;100962.31;10389925;28;20045;-61
2023/10/07 15:36:53;;;;;;;7.90;1.60;;;;;;;23.63;47.91;100954.16;10383802;28;20121;-59
2023/10/07 15:41:55;;;;;;;5.40;1.90;;;;;;;23.35;48.62;100950.38;10387599;28;20132;-59
2023/10/07 15:46:56;;;;;;;5.97;1.30;;;;;;;23.23;48.84;100952.34;10387079;28;20053;-59
2023/10/07 15:51:58;;;;;;;5.65;1.83;;;;;;;23.12;49.01;100945.84;10388087;28;20378;-59
2023/10/07 15:57:00;;;;;;;4.85;1.33;;;;;;;22.88;49.54;100936.84;10389305;28;20052;-59
2023/10/07 16:02:05;;;;;;;5.68;2.17;;;;;;;22.77;49.65;100931.16;10372632;28;20044;-61
2023/10/07 16:07:06;;;;;;;6.25;1.15;;;;;;;22.71;50.09;100925.78;10391153;28;20042;-61
2023/10/07 16:12:14;;;;;;;5.97;1.30;;;;;;;22.57;50.56;100931.56;10385218;28;20489;-61
2023/10/07 16:17:15;;;;;;;5.40;1.17;;;;;;;22.45;50.68;100916.19;10393020;28;20096;-61
2023/10/07 16:22:17;;;;;;;5.53;1.30;;;;;;;22.34;50.92;100921.47;10383752;28;20642;-61
2023/10/07 16:27:19;;;;;;;4.47;1.95;;;;;;;22.28;51.08;100902.44;10388269;28;20033;-60
2023/10/07 16:32:20;;;;;;;4.65;1.38;;;;;;;22.20;51.49;100898.13;10384182;28;20500;-61
2023/10/07 16:37:22;;;;;;;6.00;2.00;;;;;;;22.13;51.88;100897.41;10388665;28;20045;-62
2023/10/07 16:42:27;;;;;;;3.15;1.23;;;;;;;22.03;51.79;100903.47;10382275;28;20428;-62
2023/10/07 16:47:30;;;;;;;4.90;1.30;;;;;;;22.02;52.09;100900.97;10387768;28;20049;-61
2023/10/07 16:52:31;;;;;;;4.53;1.50;;;;;;;21.83;52.68;100903.84;10391882;28;20488;-61
2023/10/07 16:57:37;;;;;;;5.93;1.73;;;;;;;21.84;52.83;100908.25;10386691;28;20405;-61
2023/10/07 17:02:38;;;;;;;7.85;2.17;;;;;;;21.70;52.94;100924.06;10380283;28;20124;-61
2023/10/07 17:07:40;;;;;;;5.43;2.05;;;;;;;21.69;53.39;100946.19;10383625;28;20096;-62
2023/10/07 17:12:42;;;;;;;6.38;2.33;;;;;;;21.65;53.80;100947.72;10382770;28;20041;-60
2023/10/07 17:17:44;;;;;;;5.93;2.13;;;;;;;21.60;53.78;100959.34;10380663;28;20042;-59
2023/10/07 17:22:45;;;;;;;3.38;1.38;;;;;;;21.55;53.94;100965.53;10378897;28;20065;-59
2023/10/07 17:27:47;;;;;;;3.55;1.40;;;;;;;21.48;53.94;100955.75;10377183;28;20041;-58
2023/10/07 17:32:48;;;;;;;5.82;1.20;;;;;;;21.42;54.21;100951.19;10383860;28;20041;-59
2023/10/07 17:37:50;;;;;;;3.58;1.65;;;;;;;21.47;54.18;100959.56;10381542;28;20064;-58
2023/10/07 17:42:54;;;;;;;4.45;1.63;;;;;;;21.38;54.17;100975.44;10384099;28;20052;-58
2023/10/07 17:47:56;;;;;;;5.25;1.95;;;;;;;21.30;54.34;100982.06;10386336;28;20045;-60
2023/10/07 17:52:58;;;;;;;4.72;1.30;;;;;;;21.29;54.26;100988.63;10383941;28;20045;-59
2023/10/07 17:57:59;;;;;;;6.53;1.75;;;;;;;21.29;54.43;100996.81;10385700;28;20038;-59
2023/10/07 18:03:02;;;;;;;5.03;1.65;;;;;;;21.26;54.72;100990.97;10384176;28;20045;-60
2023/10/07 18:08:04;;;;;;;5.70;1.83;;;;;;;21.30;54.61;100992.19;10382933;28;20116;-58
2023/10/07 18:13:06;;;;;;;4.63;1.48;;;;;;;21.25;54.48;100970.16;10388664;28;20543;-58
2023/10/07 18:18:08;;;;;;;4.70;1.75;;;;;;;21.13;55.02;100968.22;10394831;28;20053;-58
2023/10/07 18:23:09;;;;;;;4.38;1.40;;;;;;;21.06;55.11;100936.56;10382420;28;20049;-58
2023/10/07 18:28:11;;;;;;;4.97;1.45;;;;;;;21.00;55.22;100938.31;10382559;28;20544;-58
2023/10/07 18:33:13;;;;;;;4.47;2.60;;;;;;;20.96;55.16;100927.00;10380964;28;20049;-58
2023/10/07 18:38:15;;;;;;;7.63;2.05;;;;;;;20.90;55.54;100925.19;10379189;28;20084;-58
2023/10/07 18:43:16;;;;;;;5.22;2.08;;;;;;;20.86;55.98;100936.84;10382530;28;20136;-58
2023/10/07 18:48:17;;;;;;;4.63;1.60;;;;;;;20.74;56.20;100945.78;10379361;28;20042;-59
2023/10/07 18:53:19;;;;;;;2.40;1.33;;;;;;;20.70;55.77;100965.63;10384222;28;20057;-59
2023/10/07 18:58:21;;;;;;;6.90;1.58;;;;;;;20.60;56.02;100957.94;10382805;28;20050;-58
2023/10/07 19:03:22;;;;;;;4.45;1.58;;;;;;;20.54;56.71;100961.56;10383669;28;20061;-58
2023/10/07 19:08:24;;;;;;;6.88;1.70;;;;;;;20.46;56.66;100956.38;10378103;28;20115;-58
2023/10/07 19:13:25;;;;;;;4.53;1.40;;;;;;;20.32;56.85;100964.72;10382179;28;20064;-59
2023/10/07 19:18:29;;;;;;;4.28;1.40;;;;;;;20.26;56.87;100972.97;10374195;28;20065;-58
2023/10/07 19:23:31;;;;;;;3.90;1.50;;;;;;;20.24;57.25;100970.47;10386450;28;20056;-60
2023/10/07 19:28:33;;;;;;;3.03;1.27;;;;;;;20.18;57.48;100963.16;10381613;28;20128;-59
2023/10/07 19:33:34;;;;;;;4.88;1.52;;;;;;;20.13;57.78;100954.81;10371829;28;20546;-59
2023/10/07 19:38:35;;;;;;;7.72;1.92;;;;;;;20.06;57.93;100945.84;10380975;28;20192;-59
2023/10/07 19:43:37;;;;;;;6.07;1.90;;;;;;;20.03;57.73;100954.50;10380625;28;20540;-57
2023/10/07 19:48:38;;;;;;;5.63;1.85;;;;;;;20.01;57.79;100936.44;10370346;28;20052;-58
2023/10/07 19:53:40;;;;;;;4.93;1.52;;;;;;;19.98;57.93;100956.00;10382582;28;20072;-57
2023/10/07 19:58:42;;;;;;;6.82;1.50;;;;;;;19.92;58.21;100956.88;10383298;28;20130;-56
2023/10/07 20:03:43;;;;;;;5.38;1.38;;;;;;;19.89;58.57;100971.00;10376793;28;20497;-57
2023/10/07 20:08:45;;;;;;;4.78;1.90;;;;;;;19.87;58.60;100959.47;10382617;28;20099;-56
2023/10/07 20:13:47;;;;;;;2.38;1.20;;;;;;;19.85;58.52;100964.31;10376132;28;20056;-57
2023/10/07 20:18:48;;;;;;;7.63;1.58;;;;;;;19.76;58.67;100954.72;10380889;28;20073;-57
2023/10/07 20:23:50;;;;;;;4.07;1.13;;;;;;;19.72;58.83;100953.50;10376445;28;20041;-56
2023/10/07 20:28:51;;;;;;;5.50;1.83;;;;;;;19.69;58.97;100964.81;10380482;28;20159;-56
2023/10/07 20:33:54;;;;;;;5.78;1.75;;;;;;;19.65;59.23;100955.38;10379294;28;20045;-57
2023/10/07 20:38:55;;;;;;;3.13;1.58;;;;;;;19.65;59.01;100953.53;10377566;28;20085;-59
2023/10/07 20:44:00;;;;;;;4.93;1.20;;;;;;;19.66;59.17;100952.44;10374123;28;20054;-58
2023/10/07 20:49:01;;;;;;;4.38;1.38;;;;;;;19.64;58.99;100951.84;10375117;28;20049;-58
2023/10/07 20:54:03;;;;;;;5.20;1.50;;;;;;;19.59;59.62;100941.59;10378278;28;20042;-59
2023/10/07 20:59:07;;;;;;;3.92;1.50;;;;;;;19.58;59.55;100939.09;10374395;28;20048;-59
2023/10/07 21:04:09;;;;;;;5.43;1.30;;;;;;;19.55;59.34;100948.56;10379152;28;20037;-59
2023/10/07 21:09:10;;;;;;;5.93;1.50;;;;;;;19.56;59.21;100965.75;10378354;28;20057;-59
2023/10/07 21:14:13;;;;;;;4.70;1.38;;;;;;;19.56;59.61;100954.84;10372738;28;20123;-59
2023/10/07 21:19:14;;;;;;;4.05;1.27;;;;;;;19.52;59.52;100964.50;10374688;28;20045;-58
2023/10/07 21:24:16;;;;;;;5.65;1.40;;;;;;;19.49;59.46;100965.81;10370773;28;20072;-59
2023/10/07 21:29:17;;;;;;;4.95;1.60;;;;;;;19.49;59.35;100957.63;10376475;28;20444;-58
2023/10/07 21:34:19;;;;;;;4.57;1.48;;;;;;;19.45;59.60;100956.41;10380049;28;20069;-59
2023/10/07 21:39:20;;;;;;;7.93;1.63;;;;;;;19.38;59.69;100953.69;10373763;28;20034;-59
2023/10/07 21:44:21;;;;;;;3.70;1.65;;;;;;;19.37;59.81;100959.34;10371673;28;20045;-58
2023/10/07 21:49:23;;;;;;;8.10;1.60;;;;;;;19.38;59.84;100959.16;10371508;28;20132;-58
2023/10/07 21:54:24;;;;;;;4.93;1.77;;;;;;;19.35;59.72;100959.59;10378900;28;20054;-59
2023/10/07 21:59:26;;;;;;;5.22;1.40;;;;;;;19.30;59.91;100955.84;10371744;28;20054;-59
2023/10/07 22:04:27;;;;;;;4.28;1.45;;;;;;;19.27;60.09;100962.56;10377487;28;20058;-59
2023/10/07 22:09:29;;;;;;;6.10;1.30;;;;;;;19.27;60.07;100968.00;10369917;28;20038;-59
2023/10/07 22:14:31;;;;;;;4.85;1.73;;;;;;;19.31;60.14;100955.63;10383638;28;20041;-58
2023/10/07 22:19:32;;;;;;;5.30;1.65;;;;;;;19.27;60.10;100954.38;10381686;28;20050;-58
2023/10/07 22:24:35;;;;;;;3.95;1.50;;;;;;;19.26;59.96;100957.34;10380491;28;20056;-58
2023/10/07 22:29:36;;;;;;;3.45;1.80;;;;;;;19.27;60.19;100964.44;10380571;28;20056;-57
2023/10/07 22:34:40;;;;;;;4.72;1.35;;;;;;;19.26;60.31;100966.34;10377831;28;20133;-58
2023/10/07 22:39:45;;;;;;;4.88;1.42;;;;;;;19.25;60.27;100948.31;10383708;28;20048;-58
2023/10/07 22:44:46;;;;;;;4.78;1.52;;;;;;;19.23;60.13;100961.31;10389266;28;20041;-58
2023/10/07 22:49:51;;;;;;;5.00;1.50;;;;;;;19.22;60.41;100963.22;10383050;28;20053;-58
2023/10/07 22:55:13;;;;;;;3.78;1.33;;;;;;;19.17;60.54;100956.75;10386466;28;20041;-58
2023/10/07 23:00:19;;;;;;;4.00;1.17;;;;;;;19.16;60.61;100952.38;10386378;28;20045;-58
2023/10/07 23:05:23;;;;;;;3.58;1.20;;;;;;;19.12;60.76;100949.25;10380959;28;20587;-58
2023/10/07 23:10:35;;;;;;;3.08;1.48;;;;;;;19.10;60.59;100950.50;10374928;28;20045;-57
2023/10/07 23:15:37;;;;;;;6.15;1.38;;;;;;;19.06;60.76;100944.66;10379765;28;20056;-58
2023/10/07 23:20:41;;;;;;;6.30;1.45;;;;;;;18.99;60.77;100960.19;10381398;28;20129;-58
2023/10/07 23:25:57;;;;;;;9.85;1.45;;;;;;;18.96;61.06;100955.19;10382197;28;20061;-58
2023/10/07 23:36:17;;;;;;;5.43;1.65;;;;;;;18.80;61.32;100970.97;10383488;28;20141;-59
2023/10/07 23:41:23;;;;;;;5.75;1.48;;;;;;;18.76;61.27;100964.25;10377798;28;20115;-58
2023/10/07 23:46:24;;;;;;;5.15;1.50;;;;;;;18.74;61.52;100965.50;10378939;28;20563;-58
2023/10/07 23:51:32;;;;;;;5.07;1.30;;;;;;;18.70;61.53;100958.81;10379052;28;20046;-58
2023/10/07 23:56:33;;;;;;;4.32;1.70;;;;;;;18.67;61.54;100979.16;10385987;28;20042;-58
